Terminal Aerodrome Forecast
Issued by NWS

Home | Current Version | Previous Version | Text Only | Print | Product List | Glossary On
Versions: 1 2 3 4 5 6 7 8 9 10 11 12 13 14 15 16 17 18 19
000
FTUS43 KIWX 271700
TAFSBN
TAF
KSBN 271726Z 2718/2818 21013KT P6SM OVC004
     FM272000 24014G22KT 4SM BR OVC007
     FM272200 26015G22KT 6SM -SHRA OVC015
     FM280100 27010KT P6SM BKN020
     FM281500 32005KT P6SM BKN035=

USA.gov is the U.S. government's official web portal to all federal, state and local government web resources and services.